< < Back
Terminal Aerodrome Forecast


Current Version              Previous Versions:   1  2  3  4  5  6  7  8  9  

Terminal Aerodrome Forecast

266
FTUS44 KOHX 010705 AAA
TAFBNA
TAF AMD
KBNA 010705Z 0107/0206 18004KT 4SM BR SCT090
      TEMPO 0109/0113 00000KT 2SM BR OVC015
     FM011500 22008KT P6SM SCT035 BKN060
     FM020000 25006KT P6SM VCSH SCT025 BKN040=



Latest METAR

249
SAUS70 KWBC 011000 RRQ
MTRBNA
METAR KBNA 010953Z 00000KT 10SM FEW060 19/17 A2992 RMK AO2 SLP126
T01890167


USA.gov is the U.S. government's official web portal to all federal, state and local government web resources and services.